createdAt,value
2022-11-27T00:00:10.895Z,67.53
2022-11-27T00:02:44.184Z,48.40
2022-11-27T00:05:13.197Z,49.83
2022-11-27T00:07:42.012Z,47.83
2022-11-27T00:10:11.698Z,44.47
2022-11-27T00:12:40.498Z,35.80
2022-11-27T00:15:14.610Z,36.57
2022-11-27T00:17:47.302Z,42.13
2022-11-27T00:20:16.403Z,50.17
2022-11-27T00:22:45.264Z,63.03
2022-11-27T00:25:14.154Z,61.47
2022-11-27T00:27:42.989Z,50.47
2022-11-27T00:30:12.603Z,35.90
2022-11-27T00:32:41.509Z,30.93
2022-11-27T00:35:12.053Z,34.30
2022-11-27T00:37:40.983Z,30.07
2022-11-27T00:40:10.611Z,30.47
2022-11-27T00:42:39.341Z,27.73
2022-11-27T00:45:09.132Z,27.73
2022-11-27T00:47:38.368Z,27.97
2022-11-27T00:50:08.664Z,28.33
2022-11-27T00:52:38.852Z,33.00
2022-11-27T00:55:26.632Z,30.60
2022-11-27T00:57:55.444Z,35.33
2022-11-27T01:00:26.108Z,42.43
2022-11-27T01:02:54.935Z,39.00
2022-11-27T01:05:24.069Z,32.60
2022-11-27T01:07:54.401Z,40.00
2022-11-27T01:10:23.316Z,43.00
2022-11-27T01:12:52.126Z,43.97
2022-11-27T01:15:21.065Z,40.97
2022-11-27T01:17:49.739Z,31.43
2022-11-27T01:20:18.718Z,39.73
2022-11-27T01:22:47.577Z,33.43
2022-11-27T01:25:17.737Z,31.00
2022-11-27T01:28:05.519Z,30.90
2022-11-27T01:30:34.282Z,37.87
2022-11-27T01:33:22.055Z,35.07
2022-11-27T01:35:57.544Z,30.50
2022-11-27T01:38:27.711Z,32.00
2022-11-27T01:41:02.853Z,36.63
2022-11-27T01:43:54.742Z,43.90
2022-11-27T01:46:32.935Z,39.37
2022-11-27T01:49:17.638Z,41.80
2022-11-27T01:51:50.246Z,37.77
2022-11-27T01:54:21.670Z,56.57
2022-11-27T01:56:56.802Z,53.93
2022-11-27T01:59:26.429Z,63.53
2022-11-27T02:01:55.492Z,78.83
2022-11-27T02:04:24.400Z,98.17
2022-11-27T02:06:54.337Z,124.07
2022-11-27T02:09:23.283Z,124.37
2022-11-27T02:11:58.252Z,149.90
2022-11-27T02:14:35.115Z,164.07
2022-11-27T02:17:08.774Z,185.27
2022-11-27T02:19:56.905Z,174.67
2022-11-27T02:22:40.599Z,167.53
2022-11-27T02:25:15.129Z,194.80
2022-11-27T02:28:14.465Z,196.27
2022-11-27T02:30:52.194Z,86.97
2022-11-27T02:33:23.390Z,72.60
2022-11-27T02:35:57.415Z,56.90
2022-11-27T02:38:31.943Z,53.50
2022-11-27T02:41:07.144Z,50.13
2022-11-27T02:43:40.010Z,59.97
2022-11-27T02:46:12.391Z,64.57
2022-11-27T02:48:45.412Z,69.27
2022-11-27T02:51:16.550Z,94.87
2022-11-27T02:53:49.988Z,86.40
2022-11-27T02:56:22.396Z,105.23
2022-11-27T02:58:53.795Z,83.60
2022-11-27T03:01:24.885Z,55.73
2022-11-27T03:03:56.866Z,61.70
2022-11-27T03:06:28.752Z,83.97
2022-11-27T03:09:02.125Z,56.63
2022-11-27T03:11:31.431Z,81.57
2022-11-27T03:14:05.102Z,99.57
2022-11-27T03:16:41.964Z,78.23
2022-11-27T03:19:17.455Z,82.10
2022-11-27T03:22:05.454Z,106.33
2022-11-27T03:24:36.914Z,77.73
2022-11-27T03:27:06.845Z,74.80
2022-11-27T03:29:41.162Z,83.13
2022-11-27T03:32:11.806Z,70.40
2022-11-27T03:34:42.893Z,45.67
2022-11-27T03:37:12.335Z,37.23
2022-11-27T03:39:41.445Z,35.07
2022-11-27T03:42:18.649Z,59.83
2022-11-27T03:44:58.032Z,66.30
2022-11-27T03:47:42.395Z,53.27
2022-11-27T03:50:23.144Z,66.60
2022-11-27T03:53:01.168Z,48.10
2022-11-27T03:55:36.543Z,32.30
2022-11-27T03:58:08.391Z,31.27
2022-11-27T04:00:40.834Z,32.83
2022-11-27T04:03:13.885Z,41.13
2022-11-27T04:06:01.464Z,32.53
2022-11-27T04:08:30.324Z,42.10
2022-11-27T04:10:59.160Z,32.77
2022-11-27T04:13:27.894Z,34.70
2022-11-27T04:15:57.022Z,36.47
2022-11-27T04:18:27.403Z,29.60
2022-11-27T04:20:56.334Z,50.30
2022-11-27T04:23:25.119Z,43.73
2022-11-27T04:25:54.493Z,26.20
2022-11-27T04:28:23.403Z,24.33
2022-11-27T04:30:53.357Z,26.40
2022-11-27T04:33:22.465Z,25.80
2022-11-27T04:35:52.997Z,23.73
2022-11-27T04:38:22.660Z,24.33
2022-11-27T04:40:53.812Z,22.80
2022-11-27T04:43:22.863Z,26.57
2022-11-27T04:45:51.842Z,20.17
2022-11-27T04:48:20.707Z,22.70
2022-11-27T04:50:49.451Z,25.33
2022-11-27T04:53:38.687Z,28.13
2022-11-27T04:56:07.940Z,22.90
2022-11-27T04:58:36.856Z,26.40
2022-11-27T05:01:05.796Z,26.20
2022-11-27T05:03:34.740Z,26.13
2022-11-27T05:06:03.770Z,21.53
2022-11-27T05:08:33.577Z,28.50
2022-11-27T05:11:06.100Z,31.27
2022-11-27T05:14:13.399Z,31.03
2022-11-27T05:16:42.640Z,24.23
2022-11-27T05:19:11.970Z,26.20
2022-11-27T05:21:40.894Z,25.63
2022-11-27T05:24:10.866Z,31.20
2022-11-27T05:26:41.832Z,34.63
2022-11-27T05:29:11.889Z,32.00
2022-11-27T05:31:41.315Z,34.67
2022-11-27T05:34:10.806Z,28.23
2022-11-27T05:36:39.865Z,25.70
2022-11-27T05:39:10.058Z,25.57
2022-11-27T05:41:43.188Z,29.33
2022-11-27T05:44:14.050Z,43.87
2022-11-27T05:46:44.271Z,41.13
2022-11-27T05:49:15.592Z,31.13
2022-11-27T05:51:50.712Z,30.27
2022-11-27T05:54:20.564Z,35.67
2022-11-27T05:56:50.799Z,29.60
2022-11-27T05:59:19.812Z,32.67
2022-11-27T06:01:49.590Z,24.83
2022-11-27T06:04:18.645Z,26.30
2022-11-27T06:06:47.383Z,20.40
2022-11-27T06:09:16.113Z,26.00
2022-11-27T06:11:44.943Z,23.83
2022-11-27T06:14:15.297Z,22.43
2022-11-27T06:16:44.300Z,22.83
2022-11-27T06:19:13.206Z,23.90
2022-11-27T06:21:42.227Z,26.90
2022-11-27T06:24:12.142Z,24.63
2022-11-27T06:26:41.128Z,22.90
2022-11-27T06:29:11.030Z,28.20
2022-11-27T06:31:42.106Z,30.80
2022-11-27T06:34:13.743Z,49.70
2022-11-27T06:36:43.212Z,28.77
2022-11-27T06:39:30.918Z,38.70
2022-11-27T06:41:59.843Z,37.03
2022-11-27T06:44:48.669Z,29.23
2022-11-27T06:47:19.194Z,31.87
2022-11-27T06:49:48.276Z,21.20
2022-11-27T06:52:17.202Z,34.80
2022-11-27T06:54:46.129Z,34.13
2022-11-27T06:57:15.866Z,30.60
2022-11-27T06:59:44.603Z,32.50
2022-11-27T07:02:16.054Z,27.30
2022-11-27T07:04:46.578Z,37.53
2022-11-27T07:07:16.044Z,38.37
2022-11-27T07:09:44.974Z,56.23
2022-11-27T07:12:13.805Z,31.00
2022-11-27T07:14:43.605Z,23.00
2022-11-27T07:17:12.710Z,23.80
2022-11-27T07:19:41.524Z,31.47
2022-11-27T07:22:12.015Z,29.47
2022-11-27T07:24:41.045Z,36.07
2022-11-27T07:27:10.109Z,24.73
2022-11-27T07:29:38.973Z,24.83
2022-11-27T07:32:07.769Z,20.97
2022-11-27T07:34:36.593Z,24.70
2022-11-27T07:37:05.374Z,45.87
2022-11-27T07:40:00.940Z,28.30
2022-11-27T07:42:40.156Z,25.43
2022-11-27T07:45:10.260Z,22.53
2022-11-27T07:47:57.526Z,23.73
2022-11-27T07:50:26.439Z,28.50
2022-11-27T07:52:55.385Z,26.70
2022-11-27T07:55:25.738Z,31.60
2022-11-27T07:57:54.637Z,26.83
2022-11-27T08:00:23.934Z,31.57
2022-11-27T08:02:52.926Z,39.80
2022-11-27T08:05:21.780Z,24.30
2022-11-27T08:07:50.754Z,23.07
2022-11-27T08:10:20.017Z,19.50
2022-11-27T08:12:50.322Z,23.93
2022-11-27T08:15:19.236Z,21.27
2022-11-27T08:17:48.200Z,15.70
2022-11-27T08:20:17.196Z,15.70
2022-11-27T08:22:45.976Z,16.87
2022-11-27T08:25:15.276Z,19.83
2022-11-27T08:27:44.143Z,15.60
2022-11-27T08:30:15.145Z,12.50
2022-11-27T08:32:44.986Z,13.60
2022-11-27T08:35:32.258Z,16.80
2022-11-27T08:38:01.199Z,15.73
2022-11-27T08:40:30.117Z,18.70
2022-11-27T08:43:00.330Z,19.13
2022-11-27T08:45:33.049Z,14.47
2022-11-27T08:48:02.152Z,15.53
2022-11-27T08:50:30.915Z,15.43
2022-11-27T08:52:59.665Z,12.37
2022-11-27T08:55:28.701Z,21.33
2022-11-27T08:57:57.561Z,18.20
2022-11-27T09:00:28.067Z,25.83
2022-11-27T09:03:00.130Z,19.70
2022-11-27T09:05:29.395Z,17.17
2022-11-27T09:07:58.579Z,22.00
2022-11-27T09:10:27.473Z,24.10
2022-11-27T09:12:56.790Z,22.53
2022-11-27T09:15:25.596Z,20.67
2022-11-27T09:17:54.458Z,32.23
2022-11-27T09:20:24.859Z,27.60
2022-11-27T09:22:53.772Z,34.63
2022-11-27T09:25:22.525Z,28.50
2022-11-27T09:27:51.468Z,23.13
2022-11-27T09:30:20.599Z,44.77
2022-11-27T09:32:49.719Z,40.97
2022-11-27T09:35:18.689Z,27.90
2022-11-27T09:37:49.004Z,25.10
2022-11-27T09:40:19.240Z,16.53
2022-11-27T09:42:54.216Z,25.20
2022-11-27T09:45:25.780Z,17.47
2022-11-27T09:47:58.137Z,29.57
2022-11-27T09:50:30.147Z,28.03
2022-11-27T09:53:07.104Z,14.90
2022-11-27T09:55:41.950Z,27.33
2022-11-27T09:58:39.162Z,18.83
2022-11-27T10:01:16.236Z,26.00
2022-11-27T10:03:46.908Z,24.97
2022-11-27T10:06:28.282Z,18.50
2022-11-27T10:09:12.965Z,14.10
2022-11-27T10:11:52.476Z,17.50
2022-11-27T10:14:32.044Z,14.10
